<?xml version="1.0" encoding="UTF-8" standalone="no" ?>
<gpx xmlns="http://www.topografix.com/GPX/1/1" xmlns:xsi="http://www.w3.org/2001/XMLSchema-instance" xsi:schemaLocation="http://www.topografix.com/GPX/1/1 http://www.topografix.com/GPX/1/1/gpx.xsd" version="1.1" creator="VisuGPX - https://www.visugpx.com">
  <metadata>
    <name>Marchairuz Mont Tendre G2</name>
    <desc><![CDATA[pour impression]]></desc>
  </metadata>
  <trk>
    <name><![CDATA[Marchairuz-Mont Tendre G2]]></name>
    <extensions>
      <line xmlns="http://www.topografix.com/GPX/gpx_style/0/2">
        <color>ffea00</color>
        <opacity>0.65</opacity>
        <width>3</width>
          <extensions>
            <sens>1</sens>
          </extensions>
      </line>
    </extensions>
    <trkseg>
      <trkpt lat="46.55242" lon="6.25157">
        <ele>1445</ele>
        <time>2023-01-05T10:11:36Z</time>
      </trkpt>
      <trkpt lat="46.55256" lon="6.25162">
        <ele>1446</ele>
        <time>2023-01-05T10:11:48Z</time>
      </trkpt>
      <trkpt lat="46.55252" lon="6.25189">
        <ele>1445</ele>
        <time>2023-01-05T10:12:03Z</time>
      </trkpt>
      <trkpt lat="46.5525" lon="6.25212">
        <ele>1444</ele>
        <time>2023-01-05T10:12:16Z</time>
      </trkpt>
      <trkpt lat="46.55255" lon="6.2524">
        <ele>1444</ele>
        <time>2023-01-05T10:12:31Z</time>
      </trkpt>
      <trkpt lat="46.55261" lon="6.25256">
        <ele>1444</ele>
        <time>2023-01-05T10:12:41Z</time>
      </trkpt>
      <trkpt lat="46.55272" lon="6.2527">
        <ele>1444</ele>
        <time>2023-01-05T10:12:53Z</time>
      </trkpt>
      <trkpt lat="46.55291" lon="6.25288">
        <ele>1445</ele>
        <time>2023-01-05T10:13:11Z</time>
      </trkpt>
      <trkpt lat="46.55319" lon="6.25315">
        <ele>1446</ele>
        <time>2023-01-05T10:13:38Z</time>
      </trkpt>
      <trkpt lat="46.55345" lon="6.25341">
        <ele>1446</ele>
        <time>2023-01-05T10:14:04Z</time>
      </trkpt>
      <trkpt lat="46.55363" lon="6.25369">
        <ele>1445</ele>
        <time>2023-01-05T10:14:25Z</time>
      </trkpt>
      <trkpt lat="46.55389" lon="6.25405">
        <ele>1445</ele>
        <time>2023-01-05T10:14:53Z</time>
      </trkpt>
      <trkpt lat="46.55403" lon="6.25417">
        <ele>1446</ele>
        <time>2023-01-05T10:15:06Z</time>
      </trkpt>
      <trkpt lat="46.55416" lon="6.25431">
        <ele>1447</ele>
        <time>2023-01-05T10:15:19Z</time>
      </trkpt>
      <trkpt lat="46.55427" lon="6.25448">
        <ele>1448</ele>
        <time>2023-01-05T10:15:32Z</time>
      </trkpt>
      <trkpt lat="46.55442" lon="6.25473">
        <ele>1449</ele>
        <time>2023-01-05T10:15:50Z</time>
      </trkpt>
      <trkpt lat="46.55466" lon="6.25509">
        <ele>1451</ele>
        <time>2023-01-05T10:16:18Z</time>
      </trkpt>
      <trkpt lat="46.55482" lon="6.2553">
        <ele>1451</ele>
        <time>2023-01-05T10:16:35Z</time>
      </trkpt>
      <trkpt lat="46.55523" lon="6.25566">
        <ele>1454</ele>
        <time>2023-01-05T10:17:14Z</time>
      </trkpt>
      <trkpt lat="46.5555" lon="6.25591">
        <ele>1455</ele>
        <time>2023-01-05T10:17:39Z</time>
      </trkpt>
      <trkpt lat="46.55563" lon="6.25606">
        <ele>1456</ele>
        <time>2023-01-05T10:17:53Z</time>
      </trkpt>
      <trkpt lat="46.55597" lon="6.25634">
        <ele>1459</ele>
        <time>2023-01-05T10:18:24Z</time>
      </trkpt>
      <trkpt lat="46.55615" lon="6.25653">
        <ele>1461</ele>
        <time>2023-01-05T10:18:42Z</time>
      </trkpt>
      <trkpt lat="46.55622" lon="6.25669">
        <ele>1462</ele>
        <time>2023-01-05T10:18:52Z</time>
      </trkpt>
      <trkpt lat="46.55633" lon="6.25688">
        <ele>1464</ele>
        <time>2023-01-05T10:19:06Z</time>
      </trkpt>
      <trkpt lat="46.55647" lon="6.25716">
        <ele>1466</ele>
        <time>2023-01-05T10:19:25Z</time>
      </trkpt>
      <trkpt lat="46.55656" lon="6.25732">
        <ele>1468</ele>
        <time>2023-01-05T10:19:36Z</time>
      </trkpt>
      <trkpt lat="46.5566" lon="6.25741">
        <ele>1468</ele>
        <time>2023-01-05T10:19:42Z</time>
      </trkpt>
      <trkpt lat="46.55665" lon="6.25764">
        <ele>1470</ele>
        <time>2023-01-05T10:19:55Z</time>
      </trkpt>
      <trkpt lat="46.55674" lon="6.25791">
        <ele>1473</ele>
        <time>2023-01-05T10:20:12Z</time>
      </trkpt>
      <trkpt lat="46.55677" lon="6.25814">
        <ele>1475</ele>
        <time>2023-01-05T10:20:25Z</time>
      </trkpt>
      <trkpt lat="46.55682" lon="6.25833">
        <ele>1477</ele>
        <time>2023-01-05T10:20:36Z</time>
      </trkpt>
      <trkpt lat="46.55684" lon="6.25862">
        <ele>1479</ele>
        <time>2023-01-05T10:20:52Z</time>
      </trkpt>
      <trkpt lat="46.55687" lon="6.25876">
        <ele>1480</ele>
        <time>2023-01-05T10:21:00Z</time>
      </trkpt>
      <trkpt lat="46.5569" lon="6.25897">
        <ele>1481</ele>
        <time>2023-01-05T10:21:12Z</time>
      </trkpt>
      <trkpt lat="46.55689" lon="6.25924">
        <ele>1482</ele>
        <time>2023-01-05T10:21:27Z</time>
      </trkpt>
      <trkpt lat="46.55686" lon="6.25934">
        <ele>1482</ele>
        <time>2023-01-05T10:21:33Z</time>
      </trkpt>
      <trkpt lat="46.55681" lon="6.25944">
        <ele>1482</ele>
        <time>2023-01-05T10:21:40Z</time>
      </trkpt>
      <trkpt lat="46.55675" lon="6.25953">
        <ele>1483</ele>
        <time>2023-01-05T10:21:47Z</time>
      </trkpt>
      <trkpt lat="46.55655" lon="6.25959">
        <ele>1482</ele>
        <time>2023-01-05T10:22:03Z</time>
      </trkpt>
      <trkpt lat="46.55646" lon="6.2597">
        <ele>1482</ele>
        <time>2023-01-05T10:22:12Z</time>
      </trkpt>
      <trkpt lat="46.5564" lon="6.25984">
        <ele>1482</ele>
        <time>2023-01-05T10:22:21Z</time>
      </trkpt>
      <trkpt lat="46.55638" lon="6.2601">
        <ele>1482</ele>
        <time>2023-01-05T10:22:36Z</time>
      </trkpt>
      <trkpt lat="46.55644" lon="6.2603">
        <ele>1482</ele>
        <time>2023-01-05T10:22:48Z</time>
      </trkpt>
      <trkpt lat="46.55651" lon="6.26043">
        <ele>1483</ele>
        <time>2023-01-05T10:22:57Z</time>
      </trkpt>
      <trkpt lat="46.5566" lon="6.26065">
        <ele>1483</ele>
        <time>2023-01-05T10:23:11Z</time>
      </trkpt>
      <trkpt lat="46.55659" lon="6.26084">
        <ele>1483</ele>
        <time>2023-01-05T10:23:21Z</time>
      </trkpt>
      <trkpt lat="46.55655" lon="6.26094">
        <ele>1482</ele>
        <time>2023-01-05T10:23:28Z</time>
      </trkpt>
      <trkpt lat="46.55648" lon="6.26112">
        <ele>1480</ele>
        <time>2023-01-05T10:23:39Z</time>
      </trkpt>
      <trkpt lat="46.55623" lon="6.26125">
        <ele>1479</ele>
        <time>2023-01-05T10:24:00Z</time>
      </trkpt>
      <trkpt lat="46.55592" lon="6.26123">
        <ele>1478</ele>
        <time>2023-01-05T10:24:25Z</time>
      </trkpt>
      <trkpt lat="46.55575" lon="6.2613">
        <ele>1477</ele>
        <time>2023-01-05T10:24:39Z</time>
      </trkpt>
      <trkpt lat="46.55566" lon="6.26142">
        <ele>1477</ele>
        <time>2023-01-05T10:24:49Z</time>
      </trkpt>
      <trkpt lat="46.55551" lon="6.26182">
        <ele>1475</ele>
        <time>2023-01-05T10:25:14Z</time>
      </trkpt>
      <trkpt lat="46.55541" lon="6.26194">
        <ele>1475</ele>
        <time>2023-01-05T10:25:25Z</time>
      </trkpt>
      <trkpt lat="46.5553" lon="6.26196">
        <ele>1475</ele>
        <time>2023-01-05T10:25:34Z</time>
      </trkpt>
      <trkpt lat="46.55515" lon="6.26191">
        <ele>1475</ele>
        <time>2023-01-05T10:25:46Z</time>
      </trkpt>
      <trkpt lat="46.55483" lon="6.26172">
        <ele>1474</ele>
        <time>2023-01-05T10:26:14Z</time>
      </trkpt>
      <trkpt lat="46.55469" lon="6.26182">
        <ele>1471</ele>
        <time>2023-01-05T10:26:26Z</time>
      </trkpt>
      <trkpt lat="46.55462" lon="6.26204">
        <ele>1469</ele>
        <time>2023-01-05T10:26:39Z</time>
      </trkpt>
      <trkpt lat="46.55463" lon="6.26224">
        <ele>1468</ele>
        <time>2023-01-05T10:26:50Z</time>
      </trkpt>
      <trkpt lat="46.55482" lon="6.26273">
        <ele>1467</ele>
        <time>2023-01-05T10:27:21Z</time>
      </trkpt>
      <trkpt lat="46.55495" lon="6.263">
        <ele>1466</ele>
        <time>2023-01-05T10:27:40Z</time>
      </trkpt>
      <trkpt lat="46.55488" lon="6.26328">
        <ele>1462</ele>
        <time>2023-01-05T10:27:56Z</time>
      </trkpt>
      <trkpt lat="46.55477" lon="6.26345">
        <ele>1460</ele>
        <time>2023-01-05T10:28:09Z</time>
      </trkpt>
      <trkpt lat="46.55475" lon="6.26355">
        <ele>1460</ele>
        <time>2023-01-05T10:28:15Z</time>
      </trkpt>
      <trkpt lat="46.55483" lon="6.26374">
        <ele>1459</ele>
        <time>2023-01-05T10:28:27Z</time>
      </trkpt>
      <trkpt lat="46.55486" lon="6.26384">
        <ele>1459</ele>
        <time>2023-01-05T10:28:33Z</time>
      </trkpt>
      <trkpt lat="46.55487" lon="6.26394">
        <ele>1458</ele>
        <time>2023-01-05T10:28:38Z</time>
      </trkpt>
      <trkpt lat="46.55486" lon="6.26406">
        <ele>1458</ele>
        <time>2023-01-05T10:28:45Z</time>
      </trkpt>
      <trkpt lat="46.55482" lon="6.26418">
        <ele>1457</ele>
        <time>2023-01-05T10:28:52Z</time>
      </trkpt>
      <trkpt lat="46.5548" lon="6.26427">
        <ele>1458</ele>
        <time>2023-01-05T10:28:58Z</time>
      </trkpt>
      <trkpt lat="46.5548" lon="6.26437">
        <ele>1458</ele>
        <time>2023-01-05T10:29:03Z</time>
      </trkpt>
      <trkpt lat="46.55482" lon="6.26448">
        <ele>1458</ele>
        <time>2023-01-05T10:29:09Z</time>
      </trkpt>
      <trkpt lat="46.5549" lon="6.26471">
        <ele>1458</ele>
        <time>2023-01-05T10:29:24Z</time>
      </trkpt>
      <trkpt lat="46.55505" lon="6.26504">
        <ele>1458</ele>
        <time>2023-01-05T10:29:45Z</time>
      </trkpt>
      <trkpt lat="46.55514" lon="6.26506">
        <ele>1458</ele>
        <time>2023-01-05T10:29:53Z</time>
      </trkpt>
      <trkpt lat="46.55534" lon="6.26513">
        <ele>1457</ele>
        <time>2023-01-05T10:30:09Z</time>
      </trkpt>
      <trkpt lat="46.55547" lon="6.26515">
        <ele>1457</ele>
        <time>2023-01-05T10:30:20Z</time>
      </trkpt>
      <trkpt lat="46.5557" lon="6.26521">
        <ele>1456</ele>
        <time>2023-01-05T10:30:38Z</time>
      </trkpt>
      <trkpt lat="46.55601" lon="6.26528">
        <ele>1456</ele>
        <time>2023-01-05T10:31:03Z</time>
      </trkpt>
      <trkpt lat="46.55629" lon="6.26535">
        <ele>1457</ele>
        <time>2023-01-05T10:31:26Z</time>
      </trkpt>
      <trkpt lat="46.55649" lon="6.26543">
        <ele>1457</ele>
        <time>2023-01-05T10:31:43Z</time>
      </trkpt>
      <trkpt lat="46.55663" lon="6.26551">
        <ele>1458</ele>
        <time>2023-01-05T10:31:55Z</time>
      </trkpt>
      <trkpt lat="46.55675" lon="6.2656">
        <ele>1459</ele>
        <time>2023-01-05T10:32:06Z</time>
      </trkpt>
      <trkpt lat="46.55686" lon="6.26572">
        <ele>1460</ele>
        <time>2023-01-05T10:32:17Z</time>
      </trkpt>
      <trkpt lat="46.55694" lon="6.26581">
        <ele>1461</ele>
        <time>2023-01-05T10:32:25Z</time>
      </trkpt>
      <trkpt lat="46.55699" lon="6.26594">
        <ele>1462</ele>
        <time>2023-01-05T10:32:33Z</time>
      </trkpt>
      <trkpt lat="46.557" lon="6.26601">
        <ele>1462</ele>
        <time>2023-01-05T10:32:37Z</time>
      </trkpt>
      <trkpt lat="46.55699" lon="6.26609">
        <ele>1462</ele>
        <time>2023-01-05T10:32:41Z</time>
      </trkpt>
      <trkpt lat="46.55694" lon="6.26616">
        <ele>1462</ele>
        <time>2023-01-05T10:32:47Z</time>
      </trkpt>
      <trkpt lat="46.55687" lon="6.26623">
        <ele>1462</ele>
        <time>2023-01-05T10:32:54Z</time>
      </trkpt>
      <trkpt lat="46.55678" lon="6.26626">
        <ele>1461</ele>
        <time>2023-01-05T10:33:01Z</time>
      </trkpt>
      <trkpt lat="46.55657" lon="6.26628">
        <ele>1461</ele>
        <time>2023-01-05T10:33:18Z</time>
      </trkpt>
      <trkpt lat="46.55634" lon="6.2663">
        <ele>1462</ele>
        <time>2023-01-05T10:33:36Z</time>
      </trkpt>
      <trkpt lat="46.55608" lon="6.26629">
        <ele>1462</ele>
        <time>2023-01-05T10:33:57Z</time>
      </trkpt>
      <trkpt lat="46.55592" lon="6.26632">
        <ele>1463</ele>
        <time>2023-01-05T10:34:10Z</time>
      </trkpt>
      <trkpt lat="46.55557" lon="6.26642">
        <ele>1464</ele>
        <time>2023-01-05T10:34:39Z</time>
      </trkpt>
      <trkpt lat="46.55542" lon="6.26649">
        <ele>1464</ele>
        <time>2023-01-05T10:34:51Z</time>
      </trkpt>
      <trkpt lat="46.55534" lon="6.26654">
        <ele>1465</ele>
        <time>2023-01-05T10:34:58Z</time>
      </trkpt>
      <trkpt lat="46.55519" lon="6.26673">
        <ele>1466</ele>
        <time>2023-01-05T10:35:14Z</time>
      </trkpt>
      <trkpt lat="46.55497" lon="6.26703">
        <ele>1468</ele>
        <time>2023-01-05T10:35:38Z</time>
      </trkpt>
      <trkpt lat="46.55482" lon="6.26722">
        <ele>1469</ele>
        <time>2023-01-05T10:35:54Z</time>
      </trkpt>
      <trkpt lat="46.55462" lon="6.26751">
        <ele>1469</ele>
        <time>2023-01-05T10:36:17Z</time>
      </trkpt>
      <trkpt lat="46.55456" lon="6.26762">
        <ele>1469</ele>
        <time>2023-01-05T10:36:25Z</time>
      </trkpt>
      <trkpt lat="46.55451" lon="6.26781">
        <ele>1470</ele>
        <time>2023-01-05T10:36:36Z</time>
      </trkpt>
      <trkpt lat="46.55445" lon="6.26803">
        <ele>1470</ele>
        <time>2023-01-05T10:36:49Z</time>
      </trkpt>
      <trkpt lat="46.5544" lon="6.26812">
        <ele>1470</ele>
        <time>2023-01-05T10:36:55Z</time>
      </trkpt>
      <trkpt lat="46.55433" lon="6.26821">
        <ele>1469</ele>
        <time>2023-01-05T10:37:03Z</time>
      </trkpt>
      <trkpt lat="46.55428" lon="6.26825">
        <ele>1469</ele>
        <time>2023-01-05T10:37:07Z</time>
      </trkpt>
      <trkpt lat="46.55414" lon="6.26833">
        <ele>1468</ele>
        <time>2023-01-05T10:37:19Z</time>
      </trkpt>
      <trkpt lat="46.55409" lon="6.26844">
        <ele>1467</ele>
        <time>2023-01-05T10:37:27Z</time>
      </trkpt>
      <trkpt lat="46.55404" lon="6.26859">
        <ele>1467</ele>
        <time>2023-01-05T10:37:36Z</time>
      </trkpt>
      <trkpt lat="46.55397" lon="6.26883">
        <ele>1466</ele>
        <time>2023-01-05T10:37:50Z</time>
      </trkpt>
      <trkpt lat="46.55397" lon="6.26894">
        <ele>1466</ele>
        <time>2023-01-05T10:37:56Z</time>
      </trkpt>
      <trkpt lat="46.55398" lon="6.26914">
        <ele>1467</ele>
        <time>2023-01-05T10:38:07Z</time>
      </trkpt>
      <trkpt lat="46.55405" lon="6.26927">
        <ele>1468</ele>
        <time>2023-01-05T10:38:16Z</time>
      </trkpt>
      <trkpt lat="46.55422" lon="6.26953">
        <ele>1471</ele>
        <time>2023-01-05T10:38:36Z</time>
      </trkpt>
      <trkpt lat="46.55438" lon="6.26969">
        <ele>1473</ele>
        <time>2023-01-05T10:38:52Z</time>
      </trkpt>
      <trkpt lat="46.55456" lon="6.26984">
        <ele>1475</ele>
        <time>2023-01-05T10:39:08Z</time>
      </trkpt>
      <trkpt lat="46.55468" lon="6.2699">
        <ele>1476</ele>
        <time>2023-01-05T10:39:18Z</time>
      </trkpt>
      <trkpt lat="46.55482" lon="6.26999">
        <ele>1477</ele>
        <time>2023-01-05T10:39:31Z</time>
      </trkpt>
      <trkpt lat="46.55498" lon="6.27003">
        <ele>1479</ele>
        <time>2023-01-05T10:39:44Z</time>
      </trkpt>
      <trkpt lat="46.5553" lon="6.27006">
        <ele>1482</ele>
        <time>2023-01-05T10:40:09Z</time>
      </trkpt>
      <trkpt lat="46.55553" lon="6.27007">
        <ele>1484</ele>
        <time>2023-01-05T10:40:28Z</time>
      </trkpt>
      <trkpt lat="46.55568" lon="6.27006">
        <ele>1485</ele>
        <time>2023-01-05T10:40:40Z</time>
      </trkpt>
      <trkpt lat="46.55591" lon="6.27003">
        <ele>1486</ele>
        <time>2023-01-05T10:40:58Z</time>
      </trkpt>
      <trkpt lat="46.55602" lon="6.26998">
        <ele>1486</ele>
        <time>2023-01-05T10:41:07Z</time>
      </trkpt>
      <trkpt lat="46.55618" lon="6.26989">
        <ele>1486</ele>
        <time>2023-01-05T10:41:21Z</time>
      </trkpt>
      <trkpt lat="46.55632" lon="6.26979">
        <ele>1486</ele>
        <time>2023-01-05T10:41:34Z</time>
      </trkpt>
      <trkpt lat="46.55647" lon="6.26971">
        <ele>1485</ele>
        <time>2023-01-05T10:41:47Z</time>
      </trkpt>
      <trkpt lat="46.55663" lon="6.26973">
        <ele>1486</ele>
        <time>2023-01-05T10:41:59Z</time>
      </trkpt>
      <trkpt lat="46.55682" lon="6.27007">
        <ele>1488</ele>
        <time>2023-01-05T10:42:23Z</time>
      </trkpt>
      <trkpt lat="46.55686" lon="6.27021">
        <ele>1490</ele>
        <time>2023-01-05T10:42:32Z</time>
      </trkpt>
      <trkpt lat="46.55676" lon="6.27042">
        <ele>1492</ele>
        <time>2023-01-05T10:42:46Z</time>
      </trkpt>
      <trkpt lat="46.55658" lon="6.27061">
        <ele>1493</ele>
        <time>2023-01-05T10:43:04Z</time>
      </trkpt>
      <trkpt lat="46.55629" lon="6.27092">
        <ele>1494</ele>
        <time>2023-01-05T10:43:33Z</time>
      </trkpt>
      <trkpt lat="46.55626" lon="6.27104">
        <ele>1494</ele>
        <time>2023-01-05T10:43:40Z</time>
      </trkpt>
      <trkpt lat="46.55627" lon="6.27116">
        <ele>1494</ele>
        <time>2023-01-05T10:43:46Z</time>
      </trkpt>
      <trkpt lat="46.55627" lon="6.27127">
        <ele>1495</ele>
        <time>2023-01-05T10:43:52Z</time>
      </trkpt>
      <trkpt lat="46.55623" lon="6.27135">
        <ele>1495</ele>
        <time>2023-01-05T10:43:58Z</time>
      </trkpt>
      <trkpt lat="46.55594" lon="6.27154">
        <ele>1493</ele>
        <time>2023-01-05T10:44:23Z</time>
      </trkpt>
      <trkpt lat="46.55576" lon="6.27179">
        <ele>1491</ele>
        <time>2023-01-05T10:44:43Z</time>
      </trkpt>
      <trkpt lat="46.55561" lon="6.27195">
        <ele>1490</ele>
        <time>2023-01-05T10:44:58Z</time>
      </trkpt>
      <trkpt lat="46.55555" lon="6.27207">
        <ele>1489</ele>
        <time>2023-01-05T10:45:06Z</time>
      </trkpt>
      <trkpt lat="46.55562" lon="6.27205">
        <ele>1490</ele>
        <time>2023-01-05T10:45:12Z</time>
      </trkpt>
      <trkpt lat="46.55569" lon="6.2721">
        <ele>1491</ele>
        <time>2023-01-05T10:45:18Z</time>
      </trkpt>
      <trkpt lat="46.55585" lon="6.27227">
        <ele>1492</ele>
        <time>2023-01-05T10:45:34Z</time>
      </trkpt>
      <trkpt lat="46.55604" lon="6.2723">
        <ele>1495</ele>
        <time>2023-01-05T10:45:49Z</time>
      </trkpt>
      <trkpt lat="46.55624" lon="6.2724">
        <ele>1497</ele>
        <time>2023-01-05T10:46:06Z</time>
      </trkpt>
      <trkpt lat="46.55636" lon="6.27252">
        <ele>1499</ele>
        <time>2023-01-05T10:46:18Z</time>
      </trkpt>
      <trkpt lat="46.55648" lon="6.27284">
        <ele>1500</ele>
        <time>2023-01-05T10:46:38Z</time>
      </trkpt>
      <trkpt lat="46.55671" lon="6.27311">
        <ele>1503</ele>
        <time>2023-01-05T10:47:02Z</time>
      </trkpt>
      <trkpt lat="46.55693" lon="6.27326">
        <ele>1506</ele>
        <time>2023-01-05T10:47:21Z</time>
      </trkpt>
      <trkpt lat="46.55718" lon="6.27345">
        <ele>1509</ele>
        <time>2023-01-05T10:47:44Z</time>
      </trkpt>
      <trkpt lat="46.55734" lon="6.27368">
        <ele>1511</ele>
        <time>2023-01-05T10:48:02Z</time>
      </trkpt>
      <trkpt lat="46.55747" lon="6.27392">
        <ele>1513</ele>
        <time>2023-01-05T10:48:19Z</time>
      </trkpt>
      <trkpt lat="46.55761" lon="6.27411">
        <ele>1515</ele>
        <time>2023-01-05T10:48:34Z</time>
      </trkpt>
      <trkpt lat="46.55778" lon="6.27432">
        <ele>1516</ele>
        <time>2023-01-05T10:48:52Z</time>
      </trkpt>
      <trkpt lat="46.55786" lon="6.27439">
        <ele>1516</ele>
        <time>2023-01-05T10:48:59Z</time>
      </trkpt>
      <trkpt lat="46.55792" lon="6.2745">
        <ele>1516</ele>
        <time>2023-01-05T10:49:07Z</time>
      </trkpt>
      <trkpt lat="46.55795" lon="6.27456">
        <ele>1516</ele>
        <time>2023-01-05T10:49:11Z</time>
      </trkpt>
      <trkpt lat="46.55794" lon="6.27478">
        <ele>1515</ele>
        <time>2023-01-05T10:49:23Z</time>
      </trkpt>
      <trkpt lat="46.55796" lon="6.2749">
        <ele>1514</ele>
        <time>2023-01-05T10:49:30Z</time>
      </trkpt>
      <trkpt lat="46.55801" lon="6.27505">
        <ele>1514</ele>
        <time>2023-01-05T10:49:39Z</time>
      </trkpt>
      <trkpt lat="46.55807" lon="6.27492">
        <ele>1516</ele>
        <time>2023-01-05T10:49:48Z</time>
      </trkpt>
      <trkpt lat="46.55808" lon="6.27478">
        <ele>1516</ele>
        <time>2023-01-05T10:49:55Z</time>
      </trkpt>
      <trkpt lat="46.55811" lon="6.27459">
        <ele>1517</ele>
        <time>2023-01-05T10:50:06Z</time>
      </trkpt>
      <trkpt lat="46.55814" lon="6.27448">
        <ele>1518</ele>
        <time>2023-01-05T10:50:13Z</time>
      </trkpt>
      <trkpt lat="46.55816" lon="6.27433">
        <ele>1519</ele>
        <time>2023-01-05T10:50:21Z</time>
      </trkpt>
      <trkpt lat="46.55814" lon="6.27424">
        <ele>1519</ele>
        <time>2023-01-05T10:50:26Z</time>
      </trkpt>
      <trkpt lat="46.55819" lon="6.27432">
        <ele>1519</ele>
        <time>2023-01-05T10:50:32Z</time>
      </trkpt>
      <trkpt lat="46.55825" lon="6.27433">
        <ele>1520</ele>
        <time>2023-01-05T10:50:37Z</time>
      </trkpt>
      <trkpt lat="46.55845" lon="6.27424">
        <ele>1519</ele>
        <time>2023-01-05T10:50:54Z</time>
      </trkpt>
      <trkpt lat="46.55848" lon="6.27419">
        <ele>1519</ele>
        <time>2023-01-05T10:50:58Z</time>
      </trkpt>
      <trkpt lat="46.55854" lon="6.27399">
        <ele>1520</ele>
        <time>2023-01-05T10:51:10Z</time>
      </trkpt>
      <trkpt lat="46.55864" lon="6.27379">
        <ele>1520</ele>
        <time>2023-01-05T10:51:23Z</time>
      </trkpt>
      <trkpt lat="46.55869" lon="6.27374">
        <ele>1520</ele>
        <time>2023-01-05T10:51:28Z</time>
      </trkpt>
      <trkpt lat="46.55876" lon="6.2737">
        <ele>1520</ele>
        <time>2023-01-05T10:51:34Z</time>
      </trkpt>
      <trkpt lat="46.55884" lon="6.27369">
        <ele>1519</ele>
        <time>2023-01-05T10:51:40Z</time>
      </trkpt>
      <trkpt lat="46.55893" lon="6.27366">
        <ele>1519</ele>
        <time>2023-01-05T10:51:48Z</time>
      </trkpt>
      <trkpt lat="46.55911" lon="6.27344">
        <ele>1520</ele>
        <time>2023-01-05T10:52:07Z</time>
      </trkpt>
      <trkpt lat="46.55914" lon="6.27338">
        <ele>1521</ele>
        <time>2023-01-05T10:52:11Z</time>
      </trkpt>
      <trkpt lat="46.55918" lon="6.27321">
        <ele>1521</ele>
        <time>2023-01-05T10:52:21Z</time>
      </trkpt>
      <trkpt lat="46.55924" lon="6.27315">
        <ele>1520</ele>
        <time>2023-01-05T10:52:27Z</time>
      </trkpt>
      <trkpt lat="46.55945" lon="6.27312">
        <ele>1518</ele>
        <time>2023-01-05T10:52:43Z</time>
      </trkpt>
      <trkpt lat="46.55955" lon="6.27309">
        <ele>1518</ele>
        <time>2023-01-05T10:52:52Z</time>
      </trkpt>
      <trkpt lat="46.55966" lon="6.27308">
        <ele>1517</ele>
        <time>2023-01-05T10:53:00Z</time>
      </trkpt>
      <trkpt lat="46.55977" lon="6.2731">
        <ele>1516</ele>
        <time>2023-01-05T10:53:09Z</time>
      </trkpt>
      <trkpt lat="46.55982" lon="6.27315">
        <ele>1515</ele>
        <time>2023-01-05T10:53:14Z</time>
      </trkpt>
      <trkpt lat="46.55991" lon="6.27319">
        <ele>1514</ele>
        <time>2023-01-05T10:53:22Z</time>
      </trkpt>
      <trkpt lat="46.56001" lon="6.2732">
        <ele>1513</ele>
        <time>2023-01-05T10:53:30Z</time>
      </trkpt>
      <trkpt lat="46.56013" lon="6.27315">
        <ele>1511</ele>
        <time>2023-01-05T10:53:40Z</time>
      </trkpt>
      <trkpt lat="46.5602" lon="6.273">
        <ele>1510</ele>
        <time>2023-01-05T10:53:50Z</time>
      </trkpt>
      <trkpt lat="46.56027" lon="6.2728">
        <ele>1510</ele>
        <time>2023-01-05T10:54:02Z</time>
      </trkpt>
      <trkpt lat="46.56031" lon="6.27263">
        <ele>1511</ele>
        <time>2023-01-05T10:54:12Z</time>
      </trkpt>
      <trkpt lat="46.56037" lon="6.2725">
        <ele>1511</ele>
        <time>2023-01-05T10:54:21Z</time>
      </trkpt>
      <trkpt lat="46.56047" lon="6.27235">
        <ele>1510</ele>
        <time>2023-01-05T10:54:32Z</time>
      </trkpt>
      <trkpt lat="46.56052" lon="6.27224">
        <ele>1510</ele>
        <time>2023-01-05T10:54:39Z</time>
      </trkpt>
      <trkpt lat="46.56063" lon="6.27211">
        <ele>1510</ele>
        <time>2023-01-05T10:54:51Z</time>
      </trkpt>
      <trkpt lat="46.56068" lon="6.27207">
        <ele>1510</ele>
        <time>2023-01-05T10:54:55Z</time>
      </trkpt>
      <trkpt lat="46.56075" lon="6.27207">
        <ele>1509</ele>
        <time>2023-01-05T10:55:01Z</time>
      </trkpt>
      <trkpt lat="46.56082" lon="6.27209">
        <ele>1509</ele>
        <time>2023-01-05T10:55:07Z</time>
      </trkpt>
      <trkpt lat="46.56088" lon="6.27207">
        <ele>1509</ele>
        <time>2023-01-05T10:55:11Z</time>
      </trkpt>
      <trkpt lat="46.56098" lon="6.27204">
        <ele>1510</ele>
        <time>2023-01-05T10:55:20Z</time>
      </trkpt>
      <trkpt lat="46.56108" lon="6.27199">
        <ele>1511</ele>
        <time>2023-01-05T10:55:28Z</time>
      </trkpt>
      <trkpt lat="46.56117" lon="6.27194">
        <ele>1512</ele>
        <time>2023-01-05T10:55:36Z</time>
      </trkpt>
      <trkpt lat="46.56126" lon="6.27195">
        <ele>1512</ele>
        <time>2023-01-05T10:55:43Z</time>
      </trkpt>
      <trkpt lat="46.56131" lon="6.272">
        <ele>1512</ele>
        <time>2023-01-05T10:55:48Z</time>
      </trkpt>
      <trkpt lat="46.56139" lon="6.27199">
        <ele>1513</ele>
        <time>2023-01-05T10:55:54Z</time>
      </trkpt>
      <trkpt lat="46.56145" lon="6.27202">
        <ele>1513</ele>
        <time>2023-01-05T10:55:59Z</time>
      </trkpt>
      <trkpt lat="46.56153" lon="6.2721">
        <ele>1512</ele>
        <time>2023-01-05T10:56:07Z</time>
      </trkpt>
      <trkpt lat="46.56158" lon="6.27214">
        <ele>1512</ele>
        <time>2023-01-05T10:56:12Z</time>
      </trkpt>
      <trkpt lat="46.56172" lon="6.27217">
        <ele>1511</ele>
        <time>2023-01-05T10:56:23Z</time>
      </trkpt>
      <trkpt lat="46.56193" lon="6.27221">
        <ele>1509</ele>
        <time>2023-01-05T10:56:40Z</time>
      </trkpt>
      <trkpt lat="46.56209" lon="6.27226">
        <ele>1507</ele>
        <time>2023-01-05T10:56:53Z</time>
      </trkpt>
      <trkpt lat="46.56219" lon="6.27223">
        <ele>1506</ele>
        <time>2023-01-05T10:57:01Z</time>
      </trkpt>
      <trkpt lat="46.56227" lon="6.27219">
        <ele>1506</ele>
        <time>2023-01-05T10:57:08Z</time>
      </trkpt>
      <trkpt lat="46.56242" lon="6.27221">
        <ele>1504</ele>
        <time>2023-01-05T10:57:20Z</time>
      </trkpt>
      <trkpt lat="46.56253" lon="6.27221">
        <ele>1503</ele>
        <time>2023-01-05T10:57:29Z</time>
      </trkpt>
      <trkpt lat="46.56265" lon="6.27224">
        <ele>1502</ele>
        <time>2023-01-05T10:57:39Z</time>
      </trkpt>
      <trkpt lat="46.56269" lon="6.2723">
        <ele>1501</ele>
        <time>2023-01-05T10:57:43Z</time>
      </trkpt>
      <trkpt lat="46.5628" lon="6.27254">
        <ele>1498</ele>
        <time>2023-01-05T10:57:59Z</time>
      </trkpt>
      <trkpt lat="46.56284" lon="6.27269">
        <ele>1497</ele>
        <time>2023-01-05T10:58:08Z</time>
      </trkpt>
      <trkpt lat="46.56288" lon="6.27282">
        <ele>1496</ele>
        <time>2023-01-05T10:58:16Z</time>
      </trkpt>
      <trkpt lat="46.56302" lon="6.27308">
        <ele>1494</ele>
        <time>2023-01-05T10:58:34Z</time>
      </trkpt>
      <trkpt lat="46.56314" lon="6.27323">
        <ele>1493</ele>
        <time>2023-01-05T10:58:47Z</time>
      </trkpt>
      <trkpt lat="46.56324" lon="6.27336">
        <ele>1493</ele>
        <time>2023-01-05T10:58:57Z</time>
      </trkpt>
      <trkpt lat="46.56329" lon="6.27345">
        <ele>1492</ele>
        <time>2023-01-05T10:59:04Z</time>
      </trkpt>
      <trkpt lat="46.5633" lon="6.27356">
        <ele>1491</ele>
        <time>2023-01-05T10:59:10Z</time>
      </trkpt>
      <trkpt lat="46.5633" lon="6.27367">
        <ele>1490</ele>
        <time>2023-01-05T10:59:16Z</time>
      </trkpt>
      <trkpt lat="46.56328" lon="6.27376">
        <ele>1490</ele>
        <time>2023-01-05T10:59:21Z</time>
      </trkpt>
      <trkpt lat="46.56329" lon="6.27386">
        <ele>1489</ele>
        <time>2023-01-05T10:59:27Z</time>
      </trkpt>
      <trkpt lat="46.56336" lon="6.27403">
        <ele>1488</ele>
        <time>2023-01-05T10:59:38Z</time>
      </trkpt>
      <trkpt lat="46.56337" lon="6.27456">
        <ele>1482</ele>
        <time>2023-01-05T11:00:07Z</time>
      </trkpt>
      <trkpt lat="46.5636" lon="6.27489">
        <ele>1483</ele>
        <time>2023-01-05T11:00:33Z</time>
      </trkpt>
      <trkpt lat="46.5638" lon="6.27519">
        <ele>1484</ele>
        <time>2023-01-05T11:00:56Z</time>
      </trkpt>
      <trkpt lat="46.56398" lon="6.27559">
        <ele>1483</ele>
        <time>2023-01-05T11:01:22Z</time>
      </trkpt>
      <trkpt lat="46.56404" lon="6.27603">
        <ele>1481</ele>
        <time>2023-01-05T11:01:47Z</time>
      </trkpt>
      <trkpt lat="46.56417" lon="6.27642">
        <ele>1481</ele>
        <time>2023-01-05T11:02:11Z</time>
      </trkpt>
      <trkpt lat="46.56416" lon="6.27666">
        <ele>1480</ele>
        <time>2023-01-05T11:02:24Z</time>
      </trkpt>
      <trkpt lat="46.5638" lon="6.27692">
        <ele>1476</ele>
        <time>2023-01-05T11:02:56Z</time>
      </trkpt>
      <trkpt lat="46.56365" lon="6.27713">
        <ele>1474</ele>
        <time>2023-01-05T11:03:13Z</time>
      </trkpt>
      <trkpt lat="46.56354" lon="6.27745">
        <ele>1472</ele>
        <time>2023-01-05T11:03:32Z</time>
      </trkpt>
      <trkpt lat="46.56346" lon="6.27751">
        <ele>1471</ele>
        <time>2023-01-05T11:03:40Z</time>
      </trkpt>
      <trkpt lat="46.56296" lon="6.27747">
        <ele>1469</ele>
        <time>2023-01-05T11:04:20Z</time>
      </trkpt>
      <trkpt lat="46.56248" lon="6.27744">
        <ele>1467</ele>
        <time>2023-01-05T11:04:58Z</time>
      </trkpt>
      <trkpt lat="46.56212" lon="6.2777">
        <ele>1467</ele>
        <time>2023-01-05T11:05:30Z</time>
      </trkpt>
      <trkpt lat="46.56193" lon="6.27803">
        <ele>1467</ele>
        <time>2023-01-05T11:05:54Z</time>
      </trkpt>
      <trkpt lat="46.56174" lon="6.27834">
        <ele>1466</ele>
        <time>2023-01-05T11:06:17Z</time>
      </trkpt>
      <trkpt lat="46.56165" lon="6.27865">
        <ele>1464</ele>
        <time>2023-01-05T11:06:35Z</time>
      </trkpt>
      <trkpt lat="46.56159" lon="6.27909">
        <ele>1461</ele>
        <time>2023-01-05T11:07:00Z</time>
      </trkpt>
      <trkpt lat="46.56168" lon="6.27955">
        <ele>1458</ele>
        <time>2023-01-05T11:07:26Z</time>
      </trkpt>
      <trkpt lat="46.56177" lon="6.28">
        <ele>1457</ele>
        <time>2023-01-05T11:07:52Z</time>
      </trkpt>
      <trkpt lat="46.56186" lon="6.28045">
        <ele>1451</ele>
        <time>2023-01-05T11:08:18Z</time>
      </trkpt>
      <trkpt lat="46.56196" lon="6.28068">
        <ele>1449</ele>
        <time>2023-01-05T11:08:33Z</time>
      </trkpt>
      <trkpt lat="46.56208" lon="6.28088">
        <ele>1447</ele>
        <time>2023-01-05T11:08:48Z</time>
      </trkpt>
      <trkpt lat="46.56235" lon="6.28112">
        <ele>1447</ele>
        <time>2023-01-05T11:09:13Z</time>
      </trkpt>
      <trkpt lat="46.5626" lon="6.28136">
        <ele>1446</ele>
        <time>2023-01-05T11:09:37Z</time>
      </trkpt>
      <trkpt lat="46.56284" lon="6.28178">
        <ele>1443</ele>
        <time>2023-01-05T11:10:07Z</time>
      </trkpt>
      <trkpt lat="46.5631" lon="6.28178">
        <ele>1444</ele>
        <time>2023-01-05T11:10:28Z</time>
      </trkpt>
      <trkpt lat="46.56329" lon="6.28179">
        <ele>1445</ele>
        <time>2023-01-05T11:10:43Z</time>
      </trkpt>
      <trkpt lat="46.56342" lon="6.28186">
        <ele>1445</ele>
        <time>2023-01-05T11:10:54Z</time>
      </trkpt>
      <trkpt lat="46.56359" lon="6.28239">
        <ele>1441</ele>
        <time>2023-01-05T11:11:26Z</time>
      </trkpt>
      <trkpt lat="46.56378" lon="6.28263">
        <ele>1441</ele>
        <time>2023-01-05T11:11:47Z</time>
      </trkpt>
      <trkpt lat="46.5638" lon="6.28284">
        <ele>1441</ele>
        <time>2023-01-05T11:11:58Z</time>
      </trkpt>
      <trkpt lat="46.56368" lon="6.28314">
        <ele>1439</ele>
        <time>2023-01-05T11:12:17Z</time>
      </trkpt>
      <trkpt lat="46.56355" lon="6.28347">
        <ele>1436</ele>
        <time>2023-01-05T11:12:38Z</time>
      </trkpt>
      <trkpt lat="46.56339" lon="6.28389">
        <ele>1433</ele>
        <time>2023-01-05T11:13:05Z</time>
      </trkpt>
      <trkpt lat="46.56326" lon="6.28403">
        <ele>1431</ele>
        <time>2023-01-05T11:13:18Z</time>
      </trkpt>
      <trkpt lat="46.56334" lon="6.28409">
        <ele>1431</ele>
        <time>2023-01-05T11:13:25Z</time>
      </trkpt>
      <trkpt lat="46.56343" lon="6.28412">
        <ele>1433</ele>
        <time>2023-01-05T11:13:32Z</time>
      </trkpt>
      <trkpt lat="46.56351" lon="6.28411">
        <ele>1434</ele>
        <time>2023-01-05T11:13:39Z</time>
      </trkpt>
      <trkpt lat="46.56364" lon="6.28406">
        <ele>1437</ele>
        <time>2023-01-05T11:13:49Z</time>
      </trkpt>
      <trkpt lat="46.56376" lon="6.28401">
        <ele>1439</ele>
        <time>2023-01-05T11:13:59Z</time>
      </trkpt>
      <trkpt lat="46.56387" lon="6.28395">
        <ele>1441</ele>
        <time>2023-01-05T11:14:09Z</time>
      </trkpt>
      <trkpt lat="46.56394" lon="6.28393">
        <ele>1442</ele>
        <time>2023-01-05T11:14:15Z</time>
      </trkpt>
      <trkpt lat="46.564" lon="6.28394">
        <ele>1443</ele>
        <time>2023-01-05T11:14:19Z</time>
      </trkpt>
      <trkpt lat="46.56406" lon="6.28397">
        <ele>1444</ele>
        <time>2023-01-05T11:14:24Z</time>
      </trkpt>
      <trkpt lat="46.56411" lon="6.28404">
        <ele>1445</ele>
        <time>2023-01-05T11:14:30Z</time>
      </trkpt>
      <trkpt lat="46.56416" lon="6.28416">
        <ele>1446</ele>
        <time>2023-01-05T11:14:38Z</time>
      </trkpt>
      <trkpt lat="46.56418" lon="6.2843">
        <ele>1446</ele>
        <time>2023-01-05T11:14:46Z</time>
      </trkpt>
      <trkpt lat="46.56421" lon="6.28456">
        <ele>1446</ele>
        <time>2023-01-05T11:15:00Z</time>
      </trkpt>
      <trkpt lat="46.56426" lon="6.28508">
        <ele>1446</ele>
        <time>2023-01-05T11:15:29Z</time>
      </trkpt>
      <trkpt lat="46.56426" lon="6.28551">
        <ele>1446</ele>
        <time>2023-01-05T11:15:53Z</time>
      </trkpt>
      <trkpt lat="46.56429" lon="6.28569">
        <ele>1445</ele>
        <time>2023-01-05T11:16:03Z</time>
      </trkpt>
      <trkpt lat="46.56438" lon="6.28597">
        <ele>1446</ele>
        <time>2023-01-05T11:16:20Z</time>
      </trkpt>
      <trkpt lat="46.56449" lon="6.28625">
        <ele>1446</ele>
        <time>2023-01-05T11:16:38Z</time>
      </trkpt>
      <trkpt lat="46.56458" lon="6.28642">
        <ele>1446</ele>
        <time>2023-01-05T11:16:49Z</time>
      </trkpt>
      <trkpt lat="46.56478" lon="6.28671">
        <ele>1447</ele>
        <time>2023-01-05T11:17:12Z</time>
      </trkpt>
      <trkpt lat="46.56502" lon="6.28701">
        <ele>1449</ele>
        <time>2023-01-05T11:17:37Z</time>
      </trkpt>
      <trkpt lat="46.56519" lon="6.28716">
        <ele>1451</ele>
        <time>2023-01-05T11:17:53Z</time>
      </trkpt>
      <trkpt lat="46.5653" lon="6.28722">
        <ele>1452</ele>
        <time>2023-01-05T11:18:03Z</time>
      </trkpt>
      <trkpt lat="46.56541" lon="6.28726">
        <ele>1453</ele>
        <time>2023-01-05T11:18:12Z</time>
      </trkpt>
      <trkpt lat="46.56559" lon="6.28732">
        <ele>1455</ele>
        <time>2023-01-05T11:18:27Z</time>
      </trkpt>
      <trkpt lat="46.5657" lon="6.28733">
        <ele>1456</ele>
        <time>2023-01-05T11:18:35Z</time>
      </trkpt>
      <trkpt lat="46.56584" lon="6.2873">
        <ele>1456</ele>
        <time>2023-01-05T11:18:47Z</time>
      </trkpt>
      <trkpt lat="46.56589" lon="6.28723">
        <ele>1456</ele>
        <time>2023-01-05T11:18:52Z</time>
      </trkpt>
      <trkpt lat="46.56595" lon="6.28712">
        <ele>1455</ele>
        <time>2023-01-05T11:19:00Z</time>
      </trkpt>
      <trkpt lat="46.56602" lon="6.28694">
        <ele>1455</ele>
        <time>2023-01-05T11:19:11Z</time>
      </trkpt>
      <trkpt lat="46.56609" lon="6.28673">
        <ele>1454</ele>
        <time>2023-01-05T11:19:24Z</time>
      </trkpt>
      <trkpt lat="46.5662" lon="6.28638">
        <ele>1456</ele>
        <time>2023-01-05T11:19:45Z</time>
      </trkpt>
      <trkpt lat="46.56631" lon="6.28607">
        <ele>1458</ele>
        <time>2023-01-05T11:20:05Z</time>
      </trkpt>
      <trkpt lat="46.56636" lon="6.286">
        <ele>1458</ele>
        <time>2023-01-05T11:20:10Z</time>
      </trkpt>
      <trkpt lat="46.56645" lon="6.28595">
        <ele>1459</ele>
        <time>2023-01-05T11:20:18Z</time>
      </trkpt>
      <trkpt lat="46.56655" lon="6.28597">
        <ele>1459</ele>
        <time>2023-01-05T11:20:26Z</time>
      </trkpt>
      <trkpt lat="46.56661" lon="6.28602">
        <ele>1459</ele>
        <time>2023-01-05T11:20:32Z</time>
      </trkpt>
      <trkpt lat="46.56686" lon="6.28628">
        <ele>1461</ele>
        <time>2023-01-05T11:20:56Z</time>
      </trkpt>
      <trkpt lat="46.56709" lon="6.28652">
        <ele>1462</ele>
        <time>2023-01-05T11:21:19Z</time>
      </trkpt>
      <trkpt lat="46.56731" lon="6.28675">
        <ele>1464</ele>
        <time>2023-01-05T11:21:41Z</time>
      </trkpt>
      <trkpt lat="46.56752" lon="6.28696">
        <ele>1467</ele>
        <time>2023-01-05T11:22:01Z</time>
      </trkpt>
      <trkpt lat="46.56763" lon="6.28701">
        <ele>1468</ele>
        <time>2023-01-05T11:22:10Z</time>
      </trkpt>
      <trkpt lat="46.56774" lon="6.28699">
        <ele>1470</ele>
        <time>2023-01-05T11:22:19Z</time>
      </trkpt>
      <trkpt lat="46.56782" lon="6.28692">
        <ele>1471</ele>
        <time>2023-01-05T11:22:27Z</time>
      </trkpt>
      <trkpt lat="46.56785" lon="6.28685">
        <ele>1471</ele>
        <time>2023-01-05T11:22:31Z</time>
      </trkpt>
      <trkpt lat="46.56788" lon="6.28673">
        <ele>1472</ele>
        <time>2023-01-05T11:22:38Z</time>
      </trkpt>
      <trkpt lat="46.56795" lon="6.28636">
        <ele>1474</ele>
        <time>2023-01-05T11:22:59Z</time>
      </trkpt>
      <trkpt lat="46.56805" lon="6.2859">
        <ele>1477</ele>
        <time>2023-01-05T11:23:26Z</time>
      </trkpt>
      <trkpt lat="46.56813" lon="6.28553">
        <ele>1479</ele>
        <time>2023-01-05T11:23:47Z</time>
      </trkpt>
      <trkpt lat="46.56818" lon="6.28543">
        <ele>1479</ele>
        <time>2023-01-05T11:23:54Z</time>
      </trkpt>
      <trkpt lat="46.56824" lon="6.28537">
        <ele>1480</ele>
        <time>2023-01-05T11:24:00Z</time>
      </trkpt>
      <trkpt lat="46.56842" lon="6.28516">
        <ele>1483</ele>
        <time>2023-01-05T11:24:18Z</time>
      </trkpt>
      <trkpt lat="46.56847" lon="6.2851">
        <ele>1484</ele>
        <time>2023-01-05T11:24:23Z</time>
      </trkpt>
      <trkpt lat="46.56851" lon="6.28498">
        <ele>1484</ele>
        <time>2023-01-05T11:24:31Z</time>
      </trkpt>
      <trkpt lat="46.56855" lon="6.28475">
        <ele>1486</ele>
        <time>2023-01-05T11:24:44Z</time>
      </trkpt>
      <trkpt lat="46.56859" lon="6.28468">
        <ele>1487</ele>
        <time>2023-01-05T11:24:49Z</time>
      </trkpt>
      <trkpt lat="46.56868" lon="6.28461">
        <ele>1489</ele>
        <time>2023-01-05T11:24:57Z</time>
      </trkpt>
      <trkpt lat="46.56875" lon="6.28459">
        <ele>1490</ele>
        <time>2023-01-05T11:25:03Z</time>
      </trkpt>
      <trkpt lat="46.5688" lon="6.28462">
        <ele>1491</ele>
        <time>2023-01-05T11:25:07Z</time>
      </trkpt>
      <trkpt lat="46.56889" lon="6.28471">
        <ele>1492</ele>
        <time>2023-01-05T11:25:16Z</time>
      </trkpt>
      <trkpt lat="46.56898" lon="6.28491">
        <ele>1494</ele>
        <time>2023-01-05T11:25:29Z</time>
      </trkpt>
      <trkpt lat="46.56911" lon="6.28522">
        <ele>1495</ele>
        <time>2023-01-05T11:25:49Z</time>
      </trkpt>
      <trkpt lat="46.56926" lon="6.28554">
        <ele>1496</ele>
        <time>2023-01-05T11:26:10Z</time>
      </trkpt>
      <trkpt lat="46.56937" lon="6.28573">
        <ele>1496</ele>
        <time>2023-01-05T11:26:24Z</time>
      </trkpt>
      <trkpt lat="46.5694" lon="6.28576">
        <ele>1497</ele>
        <time>2023-01-05T11:26:27Z</time>
      </trkpt>
      <trkpt lat="46.56946" lon="6.28579">
        <ele>1497</ele>
        <time>2023-01-05T11:26:32Z</time>
      </trkpt>
      <trkpt lat="46.56954" lon="6.28581">
        <ele>1498</ele>
        <time>2023-01-05T11:26:38Z</time>
      </trkpt>
      <trkpt lat="46.5697" lon="6.28579">
        <ele>1499</ele>
        <time>2023-01-05T11:26:51Z</time>
      </trkpt>
      <trkpt lat="46.56998" lon="6.28571">
        <ele>1503</ele>
        <time>2023-01-05T11:27:14Z</time>
      </trkpt>
      <trkpt lat="46.57035" lon="6.28562">
        <ele>1505</ele>
        <time>2023-01-05T11:27:44Z</time>
      </trkpt>
      <trkpt lat="46.5707" lon="6.28553">
        <ele>1507</ele>
        <time>2023-01-05T11:28:13Z</time>
      </trkpt>
      <trkpt lat="46.57107" lon="6.28544">
        <ele>1509</ele>
        <time>2023-01-05T11:28:43Z</time>
      </trkpt>
      <trkpt lat="46.57145" lon="6.28534">
        <ele>1512</ele>
        <time>2023-01-05T11:29:14Z</time>
      </trkpt>
      <trkpt lat="46.57186" lon="6.28524">
        <ele>1515</ele>
        <time>2023-01-05T11:29:47Z</time>
      </trkpt>
      <trkpt lat="46.57213" lon="6.28517">
        <ele>1518</ele>
        <time>2023-01-05T11:30:09Z</time>
      </trkpt>
      <trkpt lat="46.57241" lon="6.28511">
        <ele>1521</ele>
        <time>2023-01-05T11:30:31Z</time>
      </trkpt>
      <trkpt lat="46.57253" lon="6.28514">
        <ele>1522</ele>
        <time>2023-01-05T11:30:41Z</time>
      </trkpt>
      <trkpt lat="46.57263" lon="6.28523">
        <ele>1523</ele>
        <time>2023-01-05T11:30:51Z</time>
      </trkpt>
      <trkpt lat="46.57278" lon="6.28537">
        <ele>1525</ele>
        <time>2023-01-05T11:31:05Z</time>
      </trkpt>
      <trkpt lat="46.57284" lon="6.28545">
        <ele>1526</ele>
        <time>2023-01-05T11:31:11Z</time>
      </trkpt>
      <trkpt lat="46.57287" lon="6.28552">
        <ele>1526</ele>
        <time>2023-01-05T11:31:16Z</time>
      </trkpt>
      <trkpt lat="46.57291" lon="6.28566">
        <ele>1526</ele>
        <time>2023-01-05T11:31:24Z</time>
      </trkpt>
      <trkpt lat="46.57298" lon="6.28618">
        <ele>1525</ele>
        <time>2023-01-05T11:31:53Z</time>
      </trkpt>
      <trkpt lat="46.57305" lon="6.28672">
        <ele>1526</ele>
        <time>2023-01-05T11:32:24Z</time>
      </trkpt>
      <trkpt lat="46.57314" lon="6.28733">
        <ele>1528</ele>
        <time>2023-01-05T11:32:58Z</time>
      </trkpt>
      <trkpt lat="46.57323" lon="6.28797">
        <ele>1528</ele>
        <time>2023-01-05T11:33:34Z</time>
      </trkpt>
      <trkpt lat="46.5733" lon="6.28847">
        <ele>1526</ele>
        <time>2023-01-05T11:34:02Z</time>
      </trkpt>
      <trkpt lat="46.57332" lon="6.28859">
        <ele>1526</ele>
        <time>2023-01-05T11:34:09Z</time>
      </trkpt>
      <trkpt lat="46.57336" lon="6.28872">
        <ele>1526</ele>
        <time>2023-01-05T11:34:17Z</time>
      </trkpt>
      <trkpt lat="46.57347" lon="6.28888">
        <ele>1528</ele>
        <time>2023-01-05T11:34:29Z</time>
      </trkpt>
      <trkpt lat="46.57356" lon="6.28895">
        <ele>1529</ele>
        <time>2023-01-05T11:34:37Z</time>
      </trkpt>
      <trkpt lat="46.57386" lon="6.28912">
        <ele>1532</ele>
        <time>2023-01-05T11:35:03Z</time>
      </trkpt>
      <trkpt lat="46.5741" lon="6.28923">
        <ele>1534</ele>
        <time>2023-01-05T11:35:23Z</time>
      </trkpt>
      <trkpt lat="46.57427" lon="6.28934">
        <ele>1534</ele>
        <time>2023-01-05T11:35:38Z</time>
      </trkpt>
      <trkpt lat="46.57454" lon="6.28957">
        <ele>1533</ele>
        <time>2023-01-05T11:36:03Z</time>
      </trkpt>
      <trkpt lat="46.5746" lon="6.28964">
        <ele>1533</ele>
        <time>2023-01-05T11:36:09Z</time>
      </trkpt>
      <trkpt lat="46.57465" lon="6.28974">
        <ele>1533</ele>
        <time>2023-01-05T11:36:16Z</time>
      </trkpt>
      <trkpt lat="46.5747" lon="6.28982">
        <ele>1533</ele>
        <time>2023-01-05T11:36:22Z</time>
      </trkpt>
      <trkpt lat="46.57475" lon="6.28991">
        <ele>1532</ele>
        <time>2023-01-05T11:36:29Z</time>
      </trkpt>
      <trkpt lat="46.57481" lon="6.28995">
        <ele>1533</ele>
        <time>2023-01-05T11:36:34Z</time>
      </trkpt>
      <trkpt lat="46.5749" lon="6.28996">
        <ele>1533</ele>
        <time>2023-01-05T11:36:41Z</time>
      </trkpt>
      <trkpt lat="46.57515" lon="6.28987">
        <ele>1535</ele>
        <time>2023-01-05T11:37:02Z</time>
      </trkpt>
      <trkpt lat="46.57543" lon="6.28978">
        <ele>1536</ele>
        <time>2023-01-05T11:37:25Z</time>
      </trkpt>
      <trkpt lat="46.57571" lon="6.28969">
        <ele>1537</ele>
        <time>2023-01-05T11:37:48Z</time>
      </trkpt>
      <trkpt lat="46.57598" lon="6.28959">
        <ele>1539</ele>
        <time>2023-01-05T11:38:10Z</time>
      </trkpt>
      <trkpt lat="46.5762" lon="6.28946">
        <ele>1541</ele>
        <time>2023-01-05T11:38:29Z</time>
      </trkpt>
      <trkpt lat="46.57636" lon="6.28932">
        <ele>1543</ele>
        <time>2023-01-05T11:38:44Z</time>
      </trkpt>
      <trkpt lat="46.57643" lon="6.2892">
        <ele>1545</ele>
        <time>2023-01-05T11:38:53Z</time>
      </trkpt>
      <trkpt lat="46.57654" lon="6.28905">
        <ele>1546</ele>
        <time>2023-01-05T11:39:05Z</time>
      </trkpt>
      <trkpt lat="46.57666" lon="6.28887">
        <ele>1547</ele>
        <time>2023-01-05T11:39:18Z</time>
      </trkpt>
      <trkpt lat="46.57671" lon="6.28877">
        <ele>1548</ele>
        <time>2023-01-05T11:39:25Z</time>
      </trkpt>
      <trkpt lat="46.57675" lon="6.28867">
        <ele>1548</ele>
        <time>2023-01-05T11:39:32Z</time>
      </trkpt>
      <trkpt lat="46.57676" lon="6.28853">
        <ele>1549</ele>
        <time>2023-01-05T11:39:39Z</time>
      </trkpt>
      <trkpt lat="46.57678" lon="6.28841">
        <ele>1549</ele>
        <time>2023-01-05T11:39:46Z</time>
      </trkpt>
      <trkpt lat="46.5768" lon="6.28835">
        <ele>1549</ele>
        <time>2023-01-05T11:39:50Z</time>
      </trkpt>
      <trkpt lat="46.57686" lon="6.28828">
        <ele>1550</ele>
        <time>2023-01-05T11:39:56Z</time>
      </trkpt>
      <trkpt lat="46.57694" lon="6.28823">
        <ele>1550</ele>
        <time>2023-01-05T11:40:03Z</time>
      </trkpt>
      <trkpt lat="46.57712" lon="6.28813">
        <ele>1552</ele>
        <time>2023-01-05T11:40:18Z</time>
      </trkpt>
      <trkpt lat="46.57721" lon="6.2881">
        <ele>1552</ele>
        <time>2023-01-05T11:40:26Z</time>
      </trkpt>
      <trkpt lat="46.57732" lon="6.2881">
        <ele>1553</ele>
        <time>2023-01-05T11:40:35Z</time>
      </trkpt>
      <trkpt lat="46.57744" lon="6.28814">
        <ele>1554</ele>
        <time>2023-01-05T11:40:44Z</time>
      </trkpt>
      <trkpt lat="46.57768" lon="6.28819">
        <ele>1556</ele>
        <time>2023-01-05T11:41:04Z</time>
      </trkpt>
      <trkpt lat="46.57784" lon="6.28824">
        <ele>1557</ele>
        <time>2023-01-05T11:41:17Z</time>
      </trkpt>
      <trkpt lat="46.57839" lon="6.28835">
        <ele>1563</ele>
        <time>2023-01-05T11:42:01Z</time>
      </trkpt>
      <trkpt lat="46.57848" lon="6.28836">
        <ele>1565</ele>
        <time>2023-01-05T11:42:09Z</time>
      </trkpt>
      <trkpt lat="46.57853" lon="6.28834">
        <ele>1566</ele>
        <time>2023-01-05T11:42:13Z</time>
      </trkpt>
      <trkpt lat="46.57859" lon="6.28824">
        <ele>1567</ele>
        <time>2023-01-05T11:42:20Z</time>
      </trkpt>
      <trkpt lat="46.57863" lon="6.28807">
        <ele>1568</ele>
        <time>2023-01-05T11:42:30Z</time>
      </trkpt>
      <trkpt lat="46.57863" lon="6.28768">
        <ele>1567</ele>
        <time>2023-01-05T11:42:51Z</time>
      </trkpt>
      <trkpt lat="46.57865" lon="6.28749">
        <ele>1568</ele>
        <time>2023-01-05T11:43:02Z</time>
      </trkpt>
      <trkpt lat="46.57867" lon="6.28734">
        <ele>1567</ele>
        <time>2023-01-05T11:43:10Z</time>
      </trkpt>
      <trkpt lat="46.57874" lon="6.28725">
        <ele>1568</ele>
        <time>2023-01-05T11:43:18Z</time>
      </trkpt>
      <trkpt lat="46.57887" lon="6.28713">
        <ele>1569</ele>
        <time>2023-01-05T11:43:30Z</time>
      </trkpt>
      <trkpt lat="46.57891" lon="6.28706">
        <ele>1569</ele>
        <time>2023-01-05T11:43:35Z</time>
      </trkpt>
      <trkpt lat="46.57902" lon="6.28692">
        <ele>1570</ele>
        <time>2023-01-05T11:43:47Z</time>
      </trkpt>
      <trkpt lat="46.57915" lon="6.28674">
        <ele>1570</ele>
        <time>2023-01-05T11:44:01Z</time>
      </trkpt>
      <trkpt lat="46.57921" lon="6.28662">
        <ele>1571</ele>
        <time>2023-01-05T11:44:09Z</time>
      </trkpt>
      <trkpt lat="46.57923" lon="6.28653">
        <ele>1571</ele>
        <time>2023-01-05T11:44:15Z</time>
      </trkpt>
      <trkpt lat="46.57924" lon="6.28627">
        <ele>1571</ele>
        <time>2023-01-05T11:44:29Z</time>
      </trkpt>
      <trkpt lat="46.57931" lon="6.28635">
        <ele>1573</ele>
        <time>2023-01-05T11:44:36Z</time>
      </trkpt>
      <trkpt lat="46.57947" lon="6.28659">
        <ele>1576</ele>
        <time>2023-01-05T11:44:55Z</time>
      </trkpt>
      <trkpt lat="46.57975" lon="6.28684">
        <ele>1582</ele>
        <time>2023-01-05T11:45:21Z</time>
      </trkpt>
      <trkpt lat="46.57992" lon="6.28707">
        <ele>1586</ele>
        <time>2023-01-05T11:45:39Z</time>
      </trkpt>
      <trkpt lat="46.57998" lon="6.28724">
        <ele>1588</ele>
        <time>2023-01-05T11:45:50Z</time>
      </trkpt>
      <trkpt lat="46.57977" lon="6.28766">
        <ele>1586</ele>
        <time>2023-01-05T11:46:18Z</time>
      </trkpt>
      <trkpt lat="46.57974" lon="6.28782">
        <ele>1587</ele>
        <time>2023-01-05T11:46:28Z</time>
      </trkpt>
      <trkpt lat="46.57975" lon="6.28798">
        <ele>1587</ele>
        <time>2023-01-05T11:46:36Z</time>
      </trkpt>
      <trkpt lat="46.57973" lon="6.28808">
        <ele>1587</ele>
        <time>2023-01-05T11:46:42Z</time>
      </trkpt>
      <trkpt lat="46.57957" lon="6.28857">
        <ele>1585</ele>
        <time>2023-01-05T11:47:12Z</time>
      </trkpt>
      <trkpt lat="46.57973" lon="6.28808">
        <ele>1587</ele>
        <time>2023-01-05T11:47:42Z</time>
      </trkpt>
      <trkpt lat="46.57975" lon="6.28797">
        <ele>1587</ele>
        <time>2023-01-05T11:47:48Z</time>
      </trkpt>
      <trkpt lat="46.57974" lon="6.28783">
        <ele>1587</ele>
        <time>2023-01-05T11:47:56Z</time>
      </trkpt>
      <trkpt lat="46.57977" lon="6.28767">
        <ele>1587</ele>
        <time>2023-01-05T11:48:05Z</time>
      </trkpt>
      <trkpt lat="46.57998" lon="6.28724">
        <ele>1588</ele>
        <time>2023-01-05T11:48:34Z</time>
      </trkpt>
      <trkpt lat="46.57992" lon="6.28708">
        <ele>1586</ele>
        <time>2023-01-05T11:48:44Z</time>
      </trkpt>
      <trkpt lat="46.57975" lon="6.28685">
        <ele>1582</ele>
        <time>2023-01-05T11:49:03Z</time>
      </trkpt>
      <trkpt lat="46.57947" lon="6.28659">
        <ele>1576</ele>
        <time>2023-01-05T11:49:29Z</time>
      </trkpt>
      <trkpt lat="46.57931" lon="6.28634">
        <ele>1573</ele>
        <time>2023-01-05T11:49:48Z</time>
      </trkpt>
      <trkpt lat="46.57924" lon="6.28627">
        <ele>1571</ele>
        <time>2023-01-05T11:49:55Z</time>
      </trkpt>
      <trkpt lat="46.57923" lon="6.28617">
        <ele>1571</ele>
        <time>2023-01-05T11:50:00Z</time>
      </trkpt>
      <trkpt lat="46.57914" lon="6.2857">
        <ele>1570</ele>
        <time>2023-01-05T11:50:27Z</time>
      </trkpt>
      <trkpt lat="46.57911" lon="6.28543">
        <ele>1570</ele>
        <time>2023-01-05T11:50:42Z</time>
      </trkpt>
      <trkpt lat="46.57916" lon="6.28512">
        <ele>1570</ele>
        <time>2023-01-05T11:51:00Z</time>
      </trkpt>
      <trkpt lat="46.57923" lon="6.28483">
        <ele>1570</ele>
        <time>2023-01-05T11:51:17Z</time>
      </trkpt>
      <trkpt lat="46.57931" lon="6.28446">
        <ele>1569</ele>
        <time>2023-01-05T11:51:38Z</time>
      </trkpt>
      <trkpt lat="46.57942" lon="6.28416">
        <ele>1567</ele>
        <time>2023-01-05T11:51:57Z</time>
      </trkpt>
      <trkpt lat="46.57949" lon="6.28403">
        <ele>1566</ele>
        <time>2023-01-05T11:52:06Z</time>
      </trkpt>
      <trkpt lat="46.5796" lon="6.28396">
        <ele>1565</ele>
        <time>2023-01-05T11:52:16Z</time>
      </trkpt>
      <trkpt lat="46.57977" lon="6.28381">
        <ele>1563</ele>
        <time>2023-01-05T11:52:31Z</time>
      </trkpt>
      <trkpt lat="46.5799" lon="6.28367">
        <ele>1561</ele>
        <time>2023-01-05T11:52:44Z</time>
      </trkpt>
      <trkpt lat="46.57996" lon="6.28349">
        <ele>1557</ele>
        <time>2023-01-05T11:52:55Z</time>
      </trkpt>
      <trkpt lat="46.58013" lon="6.28326">
        <ele>1553</ele>
        <time>2023-01-05T11:53:14Z</time>
      </trkpt>
      <trkpt lat="46.5803" lon="6.28293">
        <ele>1549</ele>
        <time>2023-01-05T11:53:37Z</time>
      </trkpt>
      <trkpt lat="46.58035" lon="6.28273">
        <ele>1547</ele>
        <time>2023-01-05T11:53:48Z</time>
      </trkpt>
      <trkpt lat="46.58007" lon="6.2825">
        <ele>1541</ele>
        <time>2023-01-05T11:54:14Z</time>
      </trkpt>
      <trkpt lat="46.57992" lon="6.28233">
        <ele>1539</ele>
        <time>2023-01-05T11:54:29Z</time>
      </trkpt>
      <trkpt lat="46.57976" lon="6.28207">
        <ele>1538</ele>
        <time>2023-01-05T11:54:49Z</time>
      </trkpt>
      <trkpt lat="46.57958" lon="6.28164">
        <ele>1535</ele>
        <time>2023-01-05T11:55:16Z</time>
      </trkpt>
      <trkpt lat="46.57952" lon="6.28148">
        <ele>1534</ele>
        <time>2023-01-05T11:55:26Z</time>
      </trkpt>
      <trkpt lat="46.57949" lon="6.2809">
        <ele>1528</ele>
        <time>2023-01-05T11:55:58Z</time>
      </trkpt>
      <trkpt lat="46.57942" lon="6.28078">
        <ele>1527</ele>
        <time>2023-01-05T11:56:07Z</time>
      </trkpt>
      <trkpt lat="46.57918" lon="6.28042">
        <ele>1525</ele>
        <time>2023-01-05T11:56:35Z</time>
      </trkpt>
      <trkpt lat="46.57868" lon="6.27988">
        <ele>1523</ele>
        <time>2023-01-05T11:57:24Z</time>
      </trkpt>
      <trkpt lat="46.57819" lon="6.27943">
        <ele>1519</ele>
        <time>2023-01-05T11:58:11Z</time>
      </trkpt>
      <trkpt lat="46.57778" lon="6.27906">
        <ele>1519</ele>
        <time>2023-01-05T11:58:49Z</time>
      </trkpt>
      <trkpt lat="46.57752" lon="6.27899">
        <ele>1521</ele>
        <time>2023-01-05T11:59:11Z</time>
      </trkpt>
      <trkpt lat="46.57717" lon="6.27875">
        <ele>1530</ele>
        <time>2023-01-05T11:59:42Z</time>
      </trkpt>
      <trkpt lat="46.57666" lon="6.27822">
        <ele>1539</ele>
        <time>2023-01-05T12:00:32Z</time>
      </trkpt>
      <trkpt lat="46.57625" lon="6.27783">
        <ele>1542</ele>
        <time>2023-01-05T12:01:11Z</time>
      </trkpt>
      <trkpt lat="46.57581" lon="6.27745">
        <ele>1545</ele>
        <time>2023-01-05T12:01:52Z</time>
      </trkpt>
      <trkpt lat="46.57538" lon="6.27706">
        <ele>1544</ele>
        <time>2023-01-05T12:02:33Z</time>
      </trkpt>
      <trkpt lat="46.57511" lon="6.27699">
        <ele>1547</ele>
        <time>2023-01-05T12:02:55Z</time>
      </trkpt>
      <trkpt lat="46.57464" lon="6.27705">
        <ele>1551</ele>
        <time>2023-01-05T12:03:32Z</time>
      </trkpt>
      <trkpt lat="46.57451" lon="6.27697">
        <ele>1551</ele>
        <time>2023-01-05T12:03:44Z</time>
      </trkpt>
      <trkpt lat="46.57423" lon="6.27667">
        <ele>1550</ele>
        <time>2023-01-05T12:04:11Z</time>
      </trkpt>
      <trkpt lat="46.5739" lon="6.27632">
        <ele>1551</ele>
        <time>2023-01-05T12:04:44Z</time>
      </trkpt>
      <trkpt lat="46.57371" lon="6.27616">
        <ele>1554</ele>
        <time>2023-01-05T12:05:02Z</time>
      </trkpt>
      <trkpt lat="46.57334" lon="6.27584">
        <ele>1561</ele>
        <time>2023-01-05T12:05:36Z</time>
      </trkpt>
      <trkpt lat="46.57321" lon="6.2758">
        <ele>1562</ele>
        <time>2023-01-05T12:05:47Z</time>
      </trkpt>
      <trkpt lat="46.57291" lon="6.27599">
        <ele>1564</ele>
        <time>2023-01-05T12:06:13Z</time>
      </trkpt>
      <trkpt lat="46.57257" lon="6.27603">
        <ele>1566</ele>
        <time>2023-01-05T12:06:40Z</time>
      </trkpt>
      <trkpt lat="46.57236" lon="6.27614">
        <ele>1564</ele>
        <time>2023-01-05T12:06:58Z</time>
      </trkpt>
      <trkpt lat="46.57222" lon="6.27614">
        <ele>1562</ele>
        <time>2023-01-05T12:07:09Z</time>
      </trkpt>
      <trkpt lat="46.57161" lon="6.27557">
        <ele>1555</ele>
        <time>2023-01-05T12:08:08Z</time>
      </trkpt>
      <trkpt lat="46.57105" lon="6.2748">
        <ele>1538</ele>
        <time>2023-01-05T12:09:09Z</time>
      </trkpt>
      <trkpt lat="46.57072" lon="6.27424">
        <ele>1526</ele>
        <time>2023-01-05T12:09:50Z</time>
      </trkpt>
      <trkpt lat="46.57034" lon="6.27375">
        <ele>1515</ele>
        <time>2023-01-05T12:10:30Z</time>
      </trkpt>
      <trkpt lat="46.56996" lon="6.27338">
        <ele>1508</ele>
        <time>2023-01-05T12:11:07Z</time>
      </trkpt>
      <trkpt lat="46.56957" lon="6.27311">
        <ele>1511</ele>
        <time>2023-01-05T12:11:42Z</time>
      </trkpt>
      <trkpt lat="46.56901" lon="6.27293">
        <ele>1517</ele>
        <time>2023-01-05T12:12:28Z</time>
      </trkpt>
      <trkpt lat="46.56846" lon="6.27275">
        <ele>1523</ele>
        <time>2023-01-05T12:13:13Z</time>
      </trkpt>
      <trkpt lat="46.568" lon="6.27249">
        <ele>1524</ele>
        <time>2023-01-05T12:13:52Z</time>
      </trkpt>
      <trkpt lat="46.56752" lon="6.27222">
        <ele>1523</ele>
        <time>2023-01-05T12:14:33Z</time>
      </trkpt>
      <trkpt lat="46.56723" lon="6.27199">
        <ele>1520</ele>
        <time>2023-01-05T12:15:00Z</time>
      </trkpt>
      <trkpt lat="46.56688" lon="6.27171">
        <ele>1516</ele>
        <time>2023-01-05T12:15:32Z</time>
      </trkpt>
      <trkpt lat="46.56662" lon="6.27143">
        <ele>1511</ele>
        <time>2023-01-05T12:15:58Z</time>
      </trkpt>
      <trkpt lat="46.56626" lon="6.27107">
        <ele>1504</ele>
        <time>2023-01-05T12:16:33Z</time>
      </trkpt>
      <trkpt lat="46.56591" lon="6.2707">
        <ele>1498</ele>
        <time>2023-01-05T12:17:07Z</time>
      </trkpt>
      <trkpt lat="46.56559" lon="6.27042">
        <ele>1493</ele>
        <time>2023-01-05T12:17:37Z</time>
      </trkpt>
      <trkpt lat="46.56517" lon="6.27002">
        <ele>1487</ele>
        <time>2023-01-05T12:18:17Z</time>
      </trkpt>
      <trkpt lat="46.56474" lon="6.26963">
        <ele>1483</ele>
        <time>2023-01-05T12:18:58Z</time>
      </trkpt>
      <trkpt lat="46.56463" lon="6.2693">
        <ele>1482</ele>
        <time>2023-01-05T12:19:18Z</time>
      </trkpt>
      <trkpt lat="46.56428" lon="6.26877">
        <ele>1480</ele>
        <time>2023-01-05T12:19:59Z</time>
      </trkpt>
      <trkpt lat="46.56427" lon="6.26853">
        <ele>1478</ele>
        <time>2023-01-05T12:20:12Z</time>
      </trkpt>
      <trkpt lat="46.56438" lon="6.26807">
        <ele>1475</ele>
        <time>2023-01-05T12:20:39Z</time>
      </trkpt>
      <trkpt lat="46.56418" lon="6.26721">
        <ele>1472</ele>
        <time>2023-01-05T12:21:29Z</time>
      </trkpt>
      <trkpt lat="46.56394" lon="6.26698">
        <ele>1472</ele>
        <time>2023-01-05T12:21:52Z</time>
      </trkpt>
      <trkpt lat="46.56354" lon="6.26658">
        <ele>1473</ele>
        <time>2023-01-05T12:22:31Z</time>
      </trkpt>
      <trkpt lat="46.56327" lon="6.26617">
        <ele>1473</ele>
        <time>2023-01-05T12:23:02Z</time>
      </trkpt>
      <trkpt lat="46.56292" lon="6.26565">
        <ele>1473</ele>
        <time>2023-01-05T12:23:42Z</time>
      </trkpt>
      <trkpt lat="46.56243" lon="6.26532">
        <ele>1478</ele>
        <time>2023-01-05T12:24:25Z</time>
      </trkpt>
      <trkpt lat="46.56231" lon="6.26485">
        <ele>1476</ele>
        <time>2023-01-05T12:24:53Z</time>
      </trkpt>
      <trkpt lat="46.56216" lon="6.26427">
        <ele>1473</ele>
        <time>2023-01-05T12:25:27Z</time>
      </trkpt>
      <trkpt lat="46.56172" lon="6.26367">
        <ele>1477</ele>
        <time>2023-01-05T12:26:15Z</time>
      </trkpt>
      <trkpt lat="46.56146" lon="6.26337">
        <ele>1477</ele>
        <time>2023-01-05T12:26:42Z</time>
      </trkpt>
      <trkpt lat="46.56112" lon="6.26299">
        <ele>1479</ele>
        <time>2023-01-05T12:27:16Z</time>
      </trkpt>
      <trkpt lat="46.56109" lon="6.26256">
        <ele>1476</ele>
        <time>2023-01-05T12:27:40Z</time>
      </trkpt>
      <trkpt lat="46.56079" lon="6.26207">
        <ele>1477</ele>
        <time>2023-01-05T12:28:16Z</time>
      </trkpt>
      <trkpt lat="46.56043" lon="6.2615">
        <ele>1474</ele>
        <time>2023-01-05T12:28:59Z</time>
      </trkpt>
      <trkpt lat="46.56007" lon="6.26092">
        <ele>1471</ele>
        <time>2023-01-05T12:29:42Z</time>
      </trkpt>
      <trkpt lat="46.5597" lon="6.26033">
        <ele>1467</ele>
        <time>2023-01-05T12:30:26Z</time>
      </trkpt>
      <trkpt lat="46.55936" lon="6.25978">
        <ele>1463</ele>
        <time>2023-01-05T12:31:06Z</time>
      </trkpt>
      <trkpt lat="46.55931" lon="6.25949">
        <ele>1463</ele>
        <time>2023-01-05T12:31:23Z</time>
      </trkpt>
      <trkpt lat="46.55945" lon="6.2591">
        <ele>1463</ele>
        <time>2023-01-05T12:31:47Z</time>
      </trkpt>
      <trkpt lat="46.55939" lon="6.25887">
        <ele>1462</ele>
        <time>2023-01-05T12:32:01Z</time>
      </trkpt>
      <trkpt lat="46.55887" lon="6.25834">
        <ele>1468</ele>
        <time>2023-01-05T12:32:51Z</time>
      </trkpt>
      <trkpt lat="46.55849" lon="6.25805">
        <ele>1474</ele>
        <time>2023-01-05T12:33:26Z</time>
      </trkpt>
      <trkpt lat="46.55818" lon="6.25769">
        <ele>1478</ele>
        <time>2023-01-05T12:33:57Z</time>
      </trkpt>
      <trkpt lat="46.55788" lon="6.25725">
        <ele>1478</ele>
        <time>2023-01-05T12:34:32Z</time>
      </trkpt>
      <trkpt lat="46.55748" lon="6.25687">
        <ele>1479</ele>
        <time>2023-01-05T12:35:10Z</time>
      </trkpt>
      <trkpt lat="46.55724" lon="6.25652">
        <ele>1473</ele>
        <time>2023-01-05T12:35:37Z</time>
      </trkpt>
      <trkpt lat="46.55697" lon="6.256">
        <ele>1467</ele>
        <time>2023-01-05T12:36:13Z</time>
      </trkpt>
      <trkpt lat="46.55662" lon="6.25554">
        <ele>1464</ele>
        <time>2023-01-05T12:36:51Z</time>
      </trkpt>
      <trkpt lat="46.55618" lon="6.25515">
        <ele>1463</ele>
        <time>2023-01-05T12:37:32Z</time>
      </trkpt>
      <trkpt lat="46.55594" lon="6.25483">
        <ele>1464</ele>
        <time>2023-01-05T12:37:58Z</time>
      </trkpt>
      <trkpt lat="46.55554" lon="6.25431">
        <ele>1462</ele>
        <time>2023-01-05T12:38:41Z</time>
      </trkpt>
      <trkpt lat="46.55514" lon="6.25378">
        <ele>1456</ele>
        <time>2023-01-05T12:39:24Z</time>
      </trkpt>
      <trkpt lat="46.55467" lon="6.25307">
        <ele>1450</ele>
        <time>2023-01-05T12:40:19Z</time>
      </trkpt>
      <trkpt lat="46.55427" lon="6.25267">
        <ele>1450</ele>
        <time>2023-01-05T12:40:57Z</time>
      </trkpt>
      <trkpt lat="46.55388" lon="6.25211">
        <ele>1452</ele>
        <time>2023-01-05T12:41:41Z</time>
      </trkpt>
      <trkpt lat="46.55345" lon="6.25172">
        <ele>1454</ele>
        <time>2023-01-05T12:42:22Z</time>
      </trkpt>
      <trkpt lat="46.55334" lon="6.25151">
        <ele>1455</ele>
        <time>2023-01-05T12:42:36Z</time>
      </trkpt>
      <trkpt lat="46.5531" lon="6.25109">
        <ele>1453</ele>
        <time>2023-01-05T12:43:07Z</time>
      </trkpt>
      <trkpt lat="46.55288" lon="6.25075">
        <ele>1451</ele>
        <time>2023-01-05T12:43:32Z</time>
      </trkpt>
      <trkpt lat="46.55263" lon="6.2504">
        <ele>1449</ele>
        <time>2023-01-05T12:44:00Z</time>
      </trkpt>
      <trkpt lat="46.55251" lon="6.25059">
        <ele>1448</ele>
        <time>2023-01-05T12:44:14Z</time>
      </trkpt>
      <trkpt lat="46.55246" lon="6.25073">
        <ele>1448</ele>
        <time>2023-01-05T12:44:23Z</time>
      </trkpt>
      <trkpt lat="46.55244" lon="6.25087">
        <ele>1448</ele>
        <time>2023-01-05T12:44:31Z</time>
      </trkpt>
      <trkpt lat="46.55239" lon="6.25127">
        <ele>1446</ele>
        <time>2023-01-05T12:44:53Z</time>
      </trkpt>
      <trkpt lat="46.55238" lon="6.25152">
        <ele>1444</ele>
        <time>2023-01-05T12:45:07Z</time>
        <extensions>
          <visugpx:TrkExtension xmlns:visugpx="https://www.visugpx.com/editgpx/">
            <visugpx:node>1</visugpx:node>
            </visugpx:TrkExtension>
        </extensions>
      </trkpt>
    </trkseg>
  </trk>
</gpx>